createdAt,value
2016-09-15T00:00:04.227Z,25.17
2016-09-15T00:01:04.849Z,25.05
2016-09-15T00:02:04.827Z,25.14
2016-09-15T00:03:04.815Z,25.12
2016-09-15T00:04:04.488Z,25.11
2016-09-15T00:05:04.479Z,25.09
2016-09-15T00:06:04.467Z,25.12
2016-09-15T00:07:04.768Z,25.11
2016-09-15T00:08:04.743Z,25.14
2016-09-15T00:09:04.744Z,25.05
2016-09-15T00:10:04.414Z,25.16
2016-09-15T00:11:04.711Z,25.04
2016-09-15T00:12:04.712Z,25.09
2016-09-15T00:13:04.684Z,25.09
2016-09-15T00:14:04.677Z,25.05
2016-09-15T00:15:04.337Z,25.09
2016-09-15T00:16:04.645Z,25.16
2016-09-15T00:17:04.310Z,25.02
2016-09-15T00:18:04.297Z,25.14
2016-09-15T00:19:04.290Z,25.05
2016-09-15T00:20:04.282Z,25.11
2016-09-15T00:21:04.254Z,25.08
2016-09-15T00:22:04.564Z,25.09
2016-09-15T00:23:04.541Z,25.11
2016-09-15T00:24:04.532Z,25.08
2016-09-15T00:25:03.889Z,25.05
2016-09-15T00:26:04.510Z,25.05
2016-09-15T00:27:04.485Z,25.05
2016-09-15T00:28:04.159Z,24.93
2016-09-15T00:29:04.467Z,25.01
2016-09-15T00:30:04.134Z,24.99
2016-09-15T00:31:04.435Z,25.02
2016-09-15T00:32:04.110Z,25.01
2016-09-15T00:33:04.406Z,25.02
2016-09-15T00:34:04.076Z,24.97
2016-09-15T00:35:04.371Z,25.01
2016-09-15T00:36:04.360Z,24.99
2016-09-15T00:37:04.362Z,25.01
2016-09-15T00:38:04.331Z,24.98
2016-09-15T00:39:04.321Z,24.98
2016-09-15T00:40:04.306Z,24.97
2016-09-15T00:41:04.298Z,24.94
2016-09-15T00:42:04.278Z,24.98
2016-09-15T00:43:04.270Z,25.01
2016-09-15T00:44:04.271Z,24.98
2016-09-15T00:45:04.240Z,24.99
2016-09-15T00:46:04.233Z,24.92
2016-09-15T00:47:03.904Z,24.97
2016-09-15T00:48:04.204Z,24.86
2016-09-15T00:49:03.887Z,24.87
2016-09-15T00:50:04.165Z,24.86
2016-09-15T00:51:04.164Z,24.87
2016-09-15T00:52:03.829Z,24.92
2016-09-15T00:53:04.127Z,24.93
2016-09-15T00:54:04.115Z,24.93
2016-09-15T00:55:04.098Z,24.86
2016-09-15T00:56:04.083Z,24.84
2016-09-15T00:57:04.065Z,24.87
2016-09-15T00:58:04.053Z,24.89
2016-09-15T00:59:03.728Z,24.93
2016-09-15T01:00:03.711Z,24.89
2016-09-15T01:01:03.703Z,24.86
2016-09-15T01:02:03.684Z,24.86
2016-09-15T01:03:03.677Z,24.89
2016-09-15T01:04:03.975Z,24.77
2016-09-15T01:05:03.968Z,24.89
2016-09-15T01:06:03.945Z,24.89
2016-09-15T01:07:03.938Z,24.84
2016-09-15T01:08:03.919Z,24.87
2016-09-15T01:09:03.911Z,24.86
2016-09-15T01:10:03.886Z,24.83
2016-09-15T01:11:03.566Z,24.86
2016-09-15T01:12:03.860Z,24.8
2016-09-15T01:13:03.227Z,24.84
2016-09-15T01:14:03.835Z,24.79
2016-09-15T01:15:03.526Z,24.87
2016-09-15T01:16:03.816Z,24.86
2016-09-15T01:17:03.793Z,24.8
2016-09-15T01:18:03.799Z,24.8
2016-09-15T01:19:03.446Z,24.77
2016-09-15T01:20:03.769Z,24.83
2016-09-15T01:21:03.738Z,24.77
2016-09-15T01:22:03.735Z,24.77
2016-09-15T01:23:03.708Z,24.79
2016-09-15T01:24:03.709Z,24.83
2016-09-15T01:25:03.683Z,24.89
2016-09-15T01:26:03.668Z,24.75
2016-09-15T01:27:03.659Z,24.82
2016-09-15T01:28:03.350Z,24.79
2016-09-15T01:29:03.315Z,24.75
2016-09-15T01:30:03.617Z,24.64
2016-09-15T01:31:03.284Z,24.75
2016-09-15T01:32:03.582Z,24.66
2016-09-15T01:33:03.254Z,24.68
2016-09-15T01:34:03.560Z,24.75
2016-09-15T01:35:03.551Z,24.68
2016-09-15T01:36:03.528Z,24.64
2016-09-15T01:37:03.199Z,24.75
2016-09-15T01:38:03.188Z,24.64
2016-09-15T01:39:03.177Z,24.79
2016-09-15T01:40:03.161Z,24.75
2016-09-15T01:41:03.142Z,24.71
2016-09-15T01:42:03.472Z,24.82
2016-09-15T01:43:03.434Z,24.82
2016-09-15T01:44:03.106Z,24.75
2016-09-15T01:45:03.398Z,24.82
2016-09-15T01:46:03.383Z,24.67
2016-09-15T01:47:03.378Z,24.68
2016-09-15T01:48:03.372Z,24.66
2016-09-15T01:49:03.348Z,24.74
2016-09-15T01:50:03.353Z,24.68
2016-09-15T01:51:03.319Z,24.74
2016-09-15T01:52:03.309Z,24.67
2016-09-15T01:53:02.992Z,24.66
2016-09-15T01:54:03.275Z,24.63
2016-09-15T01:55:02.954Z,24.64
2016-09-15T01:56:02.963Z,24.66
2016-09-15T01:57:03.236Z,24.66
2016-09-15T01:58:03.223Z,24.67
2016-09-15T01:59:02.895Z,24.67
2016-09-15T02:00:03.201Z,24.6
2016-09-15T02:01:03.187Z,24.64
2016-09-15T02:02:03.160Z,24.7
2016-09-15T02:03:03.150Z,24.66
2016-09-15T02:04:03.135Z,24.63
2016-09-15T02:05:02.811Z,24.63
2016-09-15T02:06:03.106Z,24.63
2016-09-15T02:07:03.101Z,24.6
2016-09-15T02:08:03.089Z,24.75
2016-09-15T02:09:03.072Z,24.66
2016-09-15T02:10:03.051Z,24.66
2016-09-15T02:11:03.040Z,24.67
2016-09-15T02:12:03.029Z,24.68
2016-09-15T02:13:02.697Z,24.66
2016-09-15T02:14:02.693Z,24.75
2016-09-15T02:15:02.981Z,24.77
2016-09-15T02:16:02.656Z,24.71
2016-09-15T02:17:02.641Z,24.8
2016-09-15T02:18:02.627Z,24.74
2016-09-15T02:19:02.930Z,24.6
2016-09-15T02:20:02.932Z,24.64
2016-09-15T02:21:02.898Z,24.68
2016-09-15T02:22:02.568Z,24.61
2016-09-15T02:23:02.560Z,24.61
2016-09-15T02:24:02.864Z,24.61
2016-09-15T02:25:02.849Z,24.6
2016-09-15T02:26:02.520Z,24.59
2016-09-15T02:27:02.819Z,24.53
2016-09-15T02:28:02.810Z,24.51
2016-09-15T02:29:02.782Z,24.53
2016-09-15T02:30:02.771Z,24.49
2016-09-15T02:31:02.770Z,24.51
2016-09-15T02:32:02.746Z,24.48
2016-09-15T02:33:02.731Z,24.44
2016-09-15T02:34:02.404Z,24.52
2016-09-15T02:35:02.705Z,24.46
2016-09-15T02:36:02.695Z,24.51
2016-09-15T02:37:02.679Z,24.45
2016-09-15T02:38:02.655Z,24.45
2016-09-15T02:39:02.646Z,24.49
2016-09-15T02:40:02.630Z,24.45
2016-09-15T02:41:02.620Z,24.45
2016-09-15T02:42:02.599Z,24.49
2016-09-15T02:43:02.591Z,24.52
2016-09-15T02:44:02.571Z,24.48
2016-09-15T02:45:02.557Z,24.46
2016-09-15T02:46:02.541Z,24.44
2016-09-15T02:47:02.532Z,24.48
2016-09-15T02:48:02.520Z,24.52
2016-09-15T02:49:02.503Z,24.52
2016-09-15T02:50:02.501Z,24.55
2016-09-15T02:51:02.167Z,24.52
2016-09-15T02:52:02.455Z,24.52
2016-09-15T02:53:02.451Z,24.48
2016-09-15T02:54:02.429Z,24.48
2016-09-15T02:55:02.426Z,24.48
2016-09-15T02:56:02.401Z,24.48
2016-09-15T02:57:02.388Z,24.49
2016-09-15T02:58:02.378Z,24.52
2016-09-15T02:59:02.365Z,24.49
2016-09-15T03:00:02.032Z,24.52
2016-09-15T03:01:02.025Z,24.55
2016-09-15T03:02:02.004Z,24.48
2016-09-15T03:03:02.307Z,24.46
2016-09-15T03:04:02.301Z,24.51
2016-09-15T03:05:02.284Z,24.51
2016-09-15T03:06:02.279Z,24.51
2016-09-15T03:07:02.250Z,24.44
2016-09-15T03:08:02.242Z,24.44
2016-09-15T03:09:02.222Z,24.53
2016-09-15T03:10:02.204Z,24.42
2016-09-15T03:11:02.189Z,24.45
2016-09-15T03:12:01.874Z,24.45
2016-09-15T03:13:02.173Z,24.41
2016-09-15T03:14:02.152Z,24.45
2016-09-15T03:15:02.144Z,24.45
2016-09-15T03:16:02.121Z,24.46
2016-09-15T03:17:02.115Z,24.44
2016-09-15T03:18:02.098Z,24.46
2016-09-15T03:19:01.769Z,24.45
2016-09-15T03:20:01.442Z,24.46
2016-09-15T03:21:02.055Z,24.46
2016-09-15T03:22:02.034Z,24.42
2016-09-15T03:23:01.716Z,24.39
2016-09-15T03:24:02.013Z,24.49
2016-09-15T03:25:02.004Z,24.36
2016-09-15T03:26:01.993Z,24.3
2016-09-15T03:27:01.969Z,24.45
2016-09-15T03:28:01.634Z,24.33
2016-09-15T03:29:01.943Z,24.37
2016-09-15T03:30:01.606Z,24.3
2016-09-15T03:31:01.905Z,24.37
2016-09-15T03:32:01.903Z,24.37
2016-09-15T03:33:01.557Z,24.42
2016-09-15T03:34:01.871Z,24.34
2016-09-15T03:35:01.859Z,24.46
2016-09-15T03:36:01.848Z,24.46
2016-09-15T03:37:01.510Z,24.42
2016-09-15T03:38:01.812Z,24.36
2016-09-15T03:39:01.797Z,24.37
2016-09-15T03:40:01.794Z,24.44
2016-09-15T03:41:01.770Z,24.36
2016-09-15T03:42:01.759Z,24.42
2016-09-15T03:43:01.743Z,24.42
2016-09-15T03:44:01.725Z,24.39
2016-09-15T03:45:01.708Z,24.39
2016-09-15T03:46:01.698Z,24.41
2016-09-15T03:47:01.687Z,24.33
2016-09-15T03:48:01.669Z,24.36
2016-09-15T03:49:01.350Z,24.44
2016-09-15T03:50:01.634Z,24.33
2016-09-15T03:51:01.638Z,24.3
2016-09-15T03:52:01.614Z,24.26
2016-09-15T03:53:01.599Z,24.24
2016-09-15T03:54:01.280Z,24.26
2016-09-15T03:55:01.574Z,24.27
2016-09-15T03:56:01.553Z,24.23
2016-09-15T03:57:01.559Z,24.15
2016-09-15T03:58:01.525Z,24.24
2016-09-15T03:59:01.517Z,24.23
2016-09-15T04:00:01.184Z,24.19
2016-09-15T04:01:01.485Z,24.21
2016-09-15T04:02:01.465Z,24.24
2016-09-15T04:03:01.147Z,24.3
2016-09-15T04:04:01.139Z,24.21
2016-09-15T04:05:01.426Z,24.29
2016-09-15T04:06:01.413Z,24.11
2016-09-15T04:07:01.392Z,24.3
2016-09-15T04:08:01.396Z,24.24
2016-09-15T04:09:01.052Z,24.23
2016-09-15T04:10:01.043Z,24.29
2016-09-15T04:11:01.344Z,24.26
2016-09-15T04:12:01.325Z,24.26
2016-09-15T04:13:01.310Z,24.31
2016-09-15T04:14:01.301Z,24.31
2016-09-15T04:15:00.968Z,24.24
2016-09-15T04:16:01.270Z,24.26
2016-09-15T04:17:01.253Z,24.27
2016-09-15T04:18:01.246Z,24.29
2016-09-15T04:19:01.228Z,24.3
2016-09-15T04:20:01.220Z,24.27
2016-09-15T04:21:01.198Z,24.3
2016-09-15T04:22:01.187Z,24.42
2016-09-15T04:23:00.855Z,24.37
2016-09-15T04:24:01.155Z,24.36
2016-09-15T04:25:01.141Z,24.33
2016-09-15T04:26:00.808Z,24.27
2016-09-15T04:27:01.115Z,24.21
2016-09-15T04:28:00.786Z,24.24
2016-09-15T04:29:01.090Z,24.19
2016-09-15T04:30:00.751Z,24.29
2016-09-15T04:31:00.742Z,24.26
2016-09-15T04:32:01.046Z,24.27
2016-09-15T04:33:00.395Z,24.33
2016-09-15T04:34:01.008Z,24.19
2016-09-15T04:35:00.999Z,24.21
2016-09-15T04:36:00.675Z,24.15
2016-09-15T04:37:00.663Z,24.12
2016-09-15T04:38:00.960Z,24.12
2016-09-15T04:39:00.626Z,24.09
2016-09-15T04:40:00.933Z,24.06
2016-09-15T04:41:00.280Z,24.06
2016-09-15T04:42:00.900Z,24.12
2016-09-15T04:43:00.889Z,24.18
2016-09-15T04:44:00.870Z,24.14
2016-09-15T04:45:00.536Z,24.21
2016-09-15T04:46:00.836Z,24.23
2016-09-15T04:47:00.195Z,24.24
2016-09-15T04:48:00.829Z,24.27
2016-09-15T04:49:00.796Z,24.26
2016-09-15T04:50:00.785Z,24.24
2016-09-15T04:51:00.771Z,24.23
2016-09-15T04:52:00.757Z,24.12
2016-09-15T04:53:00.737Z,24.27
2016-09-15T04:54:00.406Z,24.24
2016-09-15T04:55:00.711Z,24.29
2016-09-15T04:56:00.388Z,24.29
2016-09-15T04:57:00.690Z,24.21
2016-09-15T04:58:00.689Z,24.23
2016-09-15T04:59:00.655Z,24.24
2016-09-15T05:00:00.647Z,24.3
2016-09-15T05:01:00.629Z,24.3
2016-09-15T05:01:59.987Z,24.37
2016-09-15T05:03:00.279Z,24.42
2016-09-15T05:04:00.265Z,24.39
2016-09-15T05:05:00.565Z,24.44
2016-09-15T05:06:00.557Z,24.45
2016-09-15T05:07:00.536Z,24.46
2016-09-15T05:08:00.528Z,24.44
2016-09-15T05:09:00.196Z,24.42
2016-09-15T05:10:00.184Z,24.44
2016-09-15T05:11:00.481Z,24.42
2016-09-15T05:12:00.471Z,24.44
2016-09-15T05:13:00.460Z,24.48
2016-09-15T05:14:00.437Z,24.48
2016-09-15T05:15:00.115Z,24.34
2016-09-15T05:16:00.109Z,24.23
2016-09-15T05:17:00.402Z,24.06
2016-09-15T05:18:00.390Z,24.12
2016-09-15T05:19:00.372Z,24.24
2016-09-15T05:20:00.362Z,24.19
2016-09-15T05:21:00.027Z,24.29
2016-09-15T05:22:00.007Z,24.23
2016-09-15T05:23:00.317Z,24.19
2016-09-15T05:23:59.989Z,24.14
2016-09-15T05:25:00.299Z,24.14
2016-09-15T05:26:00.263Z,24.05
2016-09-15T05:26:59.940Z,24.16
2016-09-15T05:27:59.929Z,24.14
2016-09-15T05:29:00.225Z,24.12
2016-09-15T05:29:59.902Z,24.06
2016-09-15T05:31:00.193Z,24
2016-09-15T05:32:00.190Z,23.99
2016-09-15T05:32:59.853Z,23.99
2016-09-15T05:34:00.154Z,23.97
2016-09-15T05:34:59.510Z,23.94
2016-09-15T05:36:00.121Z,23.9
2016-09-15T05:37:00.114Z,23.87
2016-09-15T05:38:00.094Z,23.92
2016-09-15T05:39:00.081Z,23.97
2016-09-15T05:40:00.081Z,24.02
2016-09-15T05:41:00.057Z,24.02
2016-09-15T05:42:00.040Z,24.09
2016-09-15T05:43:00.024Z,24.11
2016-09-15T05:43:59.707Z,24.14
2016-09-15T05:44:59.998Z,24.12
2016-09-15T05:45:59.982Z,24.19
2016-09-15T05:46:59.981Z,24.21
2016-09-15T05:47:59.947Z,24.18
2016-09-15T05:48:59.933Z,24.23
2016-09-15T05:49:59.915Z,24.18
2016-09-15T05:50:59.912Z,24.23
2016-09-15T05:51:59.902Z,24.18
2016-09-15T05:52:59.879Z,24.29
2016-09-15T05:53:59.872Z,24.23
2016-09-15T05:54:59.856Z,24.23
2016-09-15T05:55:59.853Z,24.24
2016-09-15T05:56:59.823Z,24.27
2016-09-15T05:57:59.814Z,24.39
2016-09-15T05:58:59.788Z,24.41
2016-09-15T05:59:59.476Z,24.44
2016-09-15T06:00:59.765Z,24.33
2016-09-15T06:01:59.437Z,24.45
2016-09-15T06:02:59.728Z,24.39
2016-09-15T06:03:59.727Z,24.39
2016-09-15T06:04:59.394Z,24.44
2016-09-15T06:05:59.686Z,24.49
2016-09-15T06:06:59.679Z,24.42
2016-09-15T06:07:59.660Z,24.46
2016-09-15T06:08:59.647Z,24.42
2016-09-15T06:09:59.326Z,24.52
2016-09-15T06:10:59.309Z,24.44
2016-09-15T06:11:59.285Z,24.42
2016-09-15T06:12:59.274Z,24.45
2016-09-15T06:13:59.265Z,24.46
2016-09-15T06:14:59.561Z,24.46
2016-09-15T06:15:59.549Z,24.48
2016-09-15T06:16:59.533Z,24.51
2016-09-15T06:17:59.518Z,24.44
2016-09-15T06:18:59.511Z,24.48
2016-09-15T06:19:59.488Z,24.49
2016-09-15T06:20:59.163Z,24.53
2016-09-15T06:21:59.459Z,24.48
2016-09-15T06:22:59.453Z,24.48
2016-09-15T06:23:59.432Z,24.51
2016-09-15T06:24:59.102Z,24.51
2016-09-15T06:25:59.088Z,24.49
2016-09-15T06:26:59.381Z,24.55
2016-09-15T06:27:59.376Z,24.61
2016-09-15T06:28:59.052Z,24.55
2016-09-15T06:29:59.348Z,24.6
2016-09-15T06:30:59.335Z,24.59
2016-09-15T06:31:59.321Z,24.63
2016-09-15T06:32:59.328Z,24.6
2016-09-15T06:33:59.290Z,24.67
2016-09-15T06:34:59.283Z,24.64
2016-09-15T06:35:59.261Z,24.63
2016-09-15T06:36:58.931Z,24.64
2016-09-15T06:37:59.225Z,24.64
2016-09-15T06:38:59.229Z,24.71
2016-09-15T06:39:58.888Z,24.7
2016-09-15T06:40:59.193Z,24.71
2016-09-15T06:41:58.852Z,24.68
2016-09-15T06:42:58.841Z,24.68
2016-09-15T06:43:59.146Z,24.67
2016-09-15T06:44:59.130Z,24.68
2016-09-15T06:45:58.799Z,24.68
2016-09-15T06:46:59.095Z,24.7
2016-09-15T06:47:59.094Z,24.7
2016-09-15T06:48:59.073Z,24.68
2016-09-15T06:49:59.064Z,24.64
2016-09-15T06:50:59.053Z,24.66
2016-09-15T06:51:58.400Z,24.79
2016-09-15T06:52:59.024Z,24.82
2016-09-15T06:53:58.688Z,24.8
2016-09-15T06:54:58.998Z,24.79
2016-09-15T06:55:58.978Z,24.79
2016-09-15T06:56:58.644Z,24.83
2016-09-15T06:57:58.627Z,24.83
2016-09-15T06:58:58.935Z,24.83
2016-09-15T06:59:58.609Z,24.84
2016-09-15T07:00:58.584Z,24.89
2016-09-15T07:01:58.889Z,24.87
2016-09-15T07:02:58.560Z,24.93
2016-09-15T07:03:58.873Z,24.9
2016-09-15T07:04:58.854Z,24.97
2016-09-15T07:05:58.833Z,24.97
2016-09-15T07:06:58.503Z,24.9
2016-09-15T07:07:58.807Z,24.93
2016-09-15T07:08:58.470Z,24.92
2016-09-15T07:09:58.772Z,24.89
2016-09-15T07:10:58.446Z,24.99
2016-09-15T07:11:58.748Z,24.9
2016-09-15T07:12:58.733Z,24.94
2016-09-15T07:13:58.404Z,24.94
2016-09-15T07:14:58.386Z,24.97
2016-09-15T07:15:58.373Z,24.98
2016-09-15T07:16:58.361Z,25.05
2016-09-15T07:17:58.343Z,24.99
2016-09-15T07:18:58.649Z,24.99
2016-09-15T07:19:58.632Z,24.97
2016-09-15T07:20:58.621Z,24.97
2016-09-15T07:21:58.298Z,24.98
2016-09-15T07:22:58.596Z,24.98
2016-09-15T07:23:58.573Z,24.93
2016-09-15T07:24:58.564Z,25.02
2016-09-15T07:25:58.224Z,24.99
2016-09-15T07:26:58.536Z,24.98
2016-09-15T07:27:58.512Z,24.98
2016-09-15T07:28:58.188Z,24.99
2016-09-15T07:29:58.494Z,24.99
2016-09-15T07:30:58.475Z,24.99
2016-09-15T07:31:58.149Z,25.02
2016-09-15T07:32:58.442Z,24.94
2016-09-15T07:33:58.439Z,25.02
2016-09-15T07:34:58.104Z,25.07
2016-09-15T07:35:58.408Z,25.04
2016-09-15T07:36:58.396Z,25.11
2016-09-15T07:37:58.387Z,25.08
2016-09-15T07:38:58.358Z,25.07
2016-09-15T07:39:58.031Z,25.11
2016-09-15T07:40:58.015Z,25.09
2016-09-15T07:41:58.321Z,25.05
2016-09-15T07:42:58.310Z,25.05
2016-09-15T07:43:58.293Z,25.12
2016-09-15T07:44:57.964Z,25.04
2016-09-15T07:45:57.941Z,25.05
2016-09-15T07:46:57.936Z,25.07
2016-09-15T07:47:58.366Z,25.11
2016-09-15T07:48:57.903Z,25.12
2016-09-15T07:49:58.202Z,25.12
2016-09-15T07:50:58.186Z,25.12
2016-09-15T07:51:57.862Z,25.02
2016-09-15T07:52:58.165Z,25.04
2016-09-15T07:53:57.837Z,25.05
2016-09-15T07:54:57.819Z,25.07
2016-09-15T07:55:58.122Z,25.08
2016-09-15T07:56:58.105Z,25.04
2016-09-15T07:57:58.092Z,25.16
2016-09-15T07:58:58.079Z,25.09
2016-09-15T07:59:57.746Z,25.12
2016-09-15T08:00:58.072Z,25.09
2016-09-15T08:01:58.051Z,25.09
2016-09-15T08:02:58.025Z,25.17
2016-09-15T08:03:58.019Z,25.09
2016-09-15T08:04:58.000Z,25.09
2016-09-15T08:05:57.672Z,25.17
2016-09-15T08:06:57.651Z,25.14
2016-09-15T08:07:57.963Z,25.2
2016-09-15T08:08:57.935Z,25.16
2016-09-15T08:09:57.301Z,25.16
2016-09-15T08:10:57.598Z,25.16
2016-09-15T08:11:57.906Z,25.17
2016-09-15T08:12:57.885Z,25.19
2016-09-15T08:13:57.871Z,25.19
2016-09-15T08:14:57.538Z,25.17
2016-09-15T08:15:57.845Z,25.14
2016-09-15T08:16:57.513Z,25.29
2016-09-15T08:17:57.823Z,25.24
2016-09-15T08:18:57.796Z,25.23
2016-09-15T08:19:57.803Z,25.27
2016-09-15T08:20:57.764Z,25.3
2016-09-15T08:21:57.462Z,25.17
2016-09-15T08:22:57.757Z,25.26
2016-09-15T08:23:57.749Z,25.24
2016-09-15T08:24:57.719Z,25.27
2016-09-15T08:25:57.407Z,25.29
2016-09-15T08:26:57.691Z,25.3
2016-09-15T08:27:57.409Z,25.3
2016-09-15T08:28:57.666Z,25.16
2016-09-15T08:29:57.656Z,25.23
2016-09-15T08:30:57.636Z,25.31
2016-09-15T08:31:57.617Z,25.19
2016-09-15T08:32:57.286Z,25.29
2016-09-15T08:33:57.585Z,25.34
2016-09-15T08:34:57.258Z,25.3
2016-09-15T08:35:57.569Z,25.24
2016-09-15T08:36:57.542Z,25.23
2016-09-15T08:37:57.550Z,25.34
2016-09-15T08:38:57.518Z,25.29
2016-09-15T08:39:57.512Z,25.29
2016-09-15T08:40:57.183Z,25.29
2016-09-15T08:41:57.486Z,25.31
2016-09-15T08:42:57.472Z,25.3
2016-09-15T08:43:57.138Z,25.29
2016-09-15T08:44:57.123Z,25.26
2016-09-15T08:45:57.412Z,25.34
2016-09-15T08:46:57.412Z,25.26
2016-09-15T08:47:57.077Z,25.29
2016-09-15T08:48:57.381Z,25.31
2016-09-15T08:49:57.371Z,25.35
2016-09-15T08:50:57.042Z,25.29
2016-09-15T08:51:57.344Z,25.29
2016-09-15T08:52:57.337Z,25.27
2016-09-15T08:53:57.012Z,25.31
2016-09-15T08:54:57.302Z,25.26
2016-09-15T08:55:56.979Z,25.29
2016-09-15T08:56:57.280Z,25.34
2016-09-15T08:57:57.254Z,25.29
2016-09-15T08:58:57.247Z,25.2
2016-09-15T08:59:57.230Z,25.27
2016-09-15T09:00:57.220Z,25.3
2016-09-15T09:01:56.889Z,25.23
2016-09-15T09:02:57.194Z,25.29
2016-09-15T09:03:57.169Z,25.29
2016-09-15T09:04:57.158Z,25.31
2016-09-15T09:05:56.841Z,25.35
2016-09-15T09:06:56.499Z,25.31
2016-09-15T09:07:57.123Z,25.31
2016-09-15T09:08:57.115Z,25.22
2016-09-15T09:09:57.096Z,25.35
2016-09-15T09:10:57.070Z,25.35
2016-09-15T09:11:56.742Z,25.31
2016-09-15T09:12:56.752Z,25.31
2016-09-15T09:13:57.032Z,25.31
2016-09-15T09:14:57.032Z,25.31
2016-09-15T09:15:56.698Z,25.34
2016-09-15T09:16:56.988Z,25.38
2016-09-15T09:17:56.985Z,25.41
2016-09-15T09:18:56.963Z,25.34
2016-09-15T09:19:56.956Z,25.24
2016-09-15T09:20:56.620Z,25.3
2016-09-15T09:21:56.923Z,25.24
2016-09-15T09:22:56.897Z,25.38
2016-09-15T09:23:56.261Z,25.27
2016-09-15T09:24:56.250Z,25.31
2016-09-15T09:25:56.559Z,25.38
2016-09-15T09:26:56.853Z,25.34
2016-09-15T09:27:56.838Z,25.36
2016-09-15T09:28:56.513Z,25.3
2016-09-15T09:29:56.810Z,25.3
2016-09-15T09:30:56.169Z,25.31
2016-09-15T09:31:56.783Z,25.38
2016-09-15T09:32:56.778Z,25.36
2016-09-15T09:33:56.447Z,25.39
2016-09-15T09:34:56.763Z,25.34
2016-09-15T09:35:56.724Z,25.39
2016-09-15T09:36:56.395Z,25.36
2016-09-15T09:37:56.390Z,25.39
2016-09-15T09:38:56.377Z,25.36
2016-09-15T09:39:56.371Z,25.35
2016-09-15T09:40:56.652Z,25.41
2016-09-15T09:41:56.647Z,25.35
2016-09-15T09:42:56.632Z,25.35
2016-09-15T09:43:56.615Z,25.35
2016-09-15T09:44:56.600Z,25.39
2016-09-15T09:45:56.595Z,25.39
2016-09-15T09:46:56.265Z,25.39
2016-09-15T09:47:56.566Z,25.34
2016-09-15T09:48:56.239Z,25.45
2016-09-15T09:49:56.544Z,25.44
2016-09-15T09:50:56.525Z,25.44
2016-09-15T09:51:56.505Z,25.41
2016-09-15T09:52:56.497Z,25.38
2016-09-15T09:53:56.482Z,25.36
2016-09-15T09:54:56.460Z,25.39
2016-09-15T09:55:56.449Z,25.35
2016-09-15T09:56:56.436Z,25.44
2016-09-15T09:57:56.427Z,25.36
2016-09-15T09:58:56.100Z,25.44
2016-09-15T09:59:56.088Z,25.35
2016-09-15T10:00:56.378Z,25.36
2016-09-15T10:01:56.382Z,25.39
2016-09-15T10:02:56.352Z,25.36
2016-09-15T10:03:56.350Z,25.41
2016-09-15T10:04:56.009Z,25.39
2016-09-15T10:05:56.320Z,25.45
2016-09-15T10:06:56.296Z,25.36
2016-09-15T10:07:56.279Z,25.39
2016-09-15T10:08:56.272Z,25.35
2016-09-15T10:09:55.935Z,25.41
2016-09-15T10:10:56.251Z,25.42
2016-09-15T10:11:56.229Z,25.41
2016-09-15T10:12:56.216Z,25.42
2016-09-15T10:13:56.200Z,25.31
2016-09-15T10:14:55.870Z,25.38
2016-09-15T10:15:56.169Z,25.34
2016-09-15T10:16:55.846Z,25.42
2016-09-15T10:17:55.833Z,25.49
2016-09-15T10:18:56.137Z,25.44
2016-09-15T10:19:55.807Z,25.46
2016-09-15T10:20:56.112Z,25.35
2016-09-15T10:21:56.090Z,25.35
2016-09-15T10:22:56.083Z,25.35
2016-09-15T10:23:56.066Z,25.36
2016-09-15T10:24:56.047Z,25.42
2016-09-15T10:25:55.716Z,25.48
2016-09-15T10:26:55.708Z,25.48
2016-09-15T10:27:55.379Z,25.48
2016-09-15T10:28:55.996Z,25.51
2016-09-15T10:29:55.985Z,25.44
2016-09-15T10:30:55.658Z,25.59
2016-09-15T10:31:55.948Z,25.51
2016-09-15T10:32:55.947Z,25.49
2016-09-15T10:33:55.922Z,25.49
2016-09-15T10:34:55.916Z,25.53
2016-09-15T10:35:55.905Z,25.49
2016-09-15T10:36:55.886Z,25.51
2016-09-15T10:37:55.881Z,25.56
2016-09-15T10:38:55.853Z,25.56
2016-09-15T10:39:55.844Z,25.56
2016-09-15T10:40:55.828Z,25.54
2016-09-15T10:41:55.822Z,25.6
2016-09-15T10:42:55.796Z,25.53
2016-09-15T10:43:55.468Z,25.53
2016-09-15T10:44:55.772Z,25.49
2016-09-15T10:45:55.767Z,25.57
2016-09-15T10:46:55.750Z,25.54
2016-09-15T10:47:55.419Z,25.6
2016-09-15T10:48:55.732Z,25.56
2016-09-15T10:49:55.714Z,25.61
2016-09-15T10:50:55.699Z,25.57
2016-09-15T10:51:55.371Z,25.56
2016-09-15T10:52:55.349Z,25.56
2016-09-15T10:53:55.651Z,25.6
2016-09-15T10:54:55.638Z,25.57
2016-09-15T10:55:55.618Z,25.57
2016-09-15T10:56:54.984Z,25.6
2016-09-15T10:57:55.588Z,25.61
2016-09-15T10:58:55.584Z,25.6
2016-09-15T10:59:55.570Z,25.56
2016-09-15T11:00:54.931Z,25.49
2016-09-15T11:01:55.545Z,25.59
2016-09-15T11:02:55.522Z,25.57
2016-09-15T11:03:54.881Z,25.59
2016-09-15T11:04:55.177Z,25.67
2016-09-15T11:05:55.167Z,25.66
2016-09-15T11:06:55.469Z,25.57
2016-09-15T11:07:55.454Z,25.69
2016-09-15T11:08:55.443Z,25.54
2016-09-15T11:09:55.430Z,25.61
2016-09-15T11:10:55.106Z,25.57
2016-09-15T11:11:55.401Z,25.61
2016-09-15T11:12:55.388Z,25.63
2016-09-15T11:13:55.389Z,25.57
2016-09-15T11:14:55.357Z,25.59
2016-09-15T11:15:55.342Z,25.57
2016-09-15T11:16:55.458Z,25.64
2016-09-15T11:17:54.685Z,25.64
2016-09-15T11:18:54.997Z,25.64
2016-09-15T11:19:54.977Z,25.66
2016-09-15T11:20:54.968Z,25.64
2016-09-15T11:21:55.274Z,25.63
2016-09-15T11:22:54.940Z,25.59
2016-09-15T11:23:55.253Z,25.61
2016-09-15T11:24:55.241Z,25.59
2016-09-15T11:25:55.213Z,25.63
2016-09-15T11:26:55.198Z,25.61
2016-09-15T11:27:55.191Z,25.59
2016-09-15T11:28:54.546Z,25.64
2016-09-15T11:29:55.160Z,25.6
2016-09-15T11:30:55.139Z,25.6
2016-09-15T11:31:54.812Z,25.56
2016-09-15T11:32:55.126Z,25.63
2016-09-15T11:33:54.793Z,25.61
2016-09-15T11:34:55.091Z,25.57
2016-09-15T11:35:55.074Z,25.56
2016-09-15T11:36:55.060Z,25.63
2016-09-15T11:37:54.730Z,25.6
2016-09-15T11:38:54.720Z,25.59
2016-09-15T11:39:55.021Z,25.67
2016-09-15T11:40:54.378Z,25.69
2016-09-15T11:41:54.991Z,25.57
2016-09-15T11:42:54.994Z,25.64
2016-09-15T11:43:54.967Z,25.6
2016-09-15T11:44:54.952Z,25.69
2016-09-15T11:45:54.939Z,25.64
2016-09-15T11:46:54.922Z,25.72
2016-09-15T11:47:54.916Z,25.66
2016-09-15T11:48:54.897Z,25.66
2016-09-15T11:49:54.585Z,25.64
2016-09-15T11:50:54.876Z,25.69
2016-09-15T11:51:54.907Z,25.74
2016-09-15T11:52:54.525Z,25.67
2016-09-15T11:53:54.528Z,25.74
2016-09-15T11:54:54.810Z,25.69
2016-09-15T11:55:54.488Z,25.72
2016-09-15T11:56:54.791Z,25.72
2016-09-15T11:57:54.776Z,25.66
2016-09-15T11:58:54.442Z,25.74
2016-09-15T11:59:54.431Z,25.69
2016-09-15T12:00:54.736Z,25.74
2016-09-15T12:01:54.719Z,25.67
2016-09-15T12:02:54.405Z,25.72
2016-09-15T12:03:54.390Z,25.75
2016-09-15T12:04:54.674Z,25.74
2016-09-15T12:05:54.663Z,25.71
2016-09-15T12:06:54.643Z,25.76
2016-09-15T12:07:54.638Z,25.75
2016-09-15T12:08:54.311Z,25.74
2016-09-15T12:09:54.616Z,25.76
2016-09-15T12:10:54.612Z,25.71
2016-09-15T12:11:54.583Z,25.69
2016-09-15T12:12:54.564Z,25.71
2016-09-15T12:13:54.557Z,25.76
2016-09-15T12:14:54.225Z,25.69
2016-09-15T12:15:54.210Z,25.72
2016-09-15T12:16:54.200Z,25.76
2016-09-15T12:17:54.501Z,25.67
2016-09-15T12:18:54.165Z,25.74
2016-09-15T12:19:54.161Z,25.72
2016-09-15T12:20:54.462Z,25.72
2016-09-15T12:21:54.141Z,25.72
2016-09-15T12:22:54.434Z,25.71
2016-09-15T12:23:54.107Z,25.69
2016-09-15T12:24:54.407Z,25.72
2016-09-15T12:25:54.073Z,25.69
2016-09-15T12:26:54.378Z,25.72
2016-09-15T12:27:54.363Z,25.76
2016-09-15T12:28:54.347Z,25.76
2016-09-15T12:29:54.337Z,25.75
2016-09-15T12:30:54.319Z,25.76
2016-09-15T12:31:54.313Z,25.72
2016-09-15T12:32:54.298Z,25.75
2016-09-15T12:33:54.281Z,25.71
2016-09-15T12:34:53.950Z,25.71
2016-09-15T12:35:53.930Z,25.75
2016-09-15T12:36:54.231Z,25.66
2016-09-15T12:37:54.226Z,25.75
2016-09-15T12:38:54.215Z,25.71
2016-09-15T12:39:54.195Z,25.76
2016-09-15T12:40:54.177Z,25.79
2016-09-15T12:41:54.171Z,25.85
2016-09-15T12:42:54.149Z,25.78
2016-09-15T12:43:54.149Z,25.71
2016-09-15T12:44:53.811Z,25.79
2016-09-15T12:45:53.797Z,25.79
2016-09-15T12:46:54.106Z,25.89
2016-09-15T12:47:53.769Z,25.81
2016-09-15T12:48:53.445Z,25.86
2016-09-15T12:49:54.052Z,25.75
2016-09-15T12:50:53.729Z,25.78
2016-09-15T12:51:53.717Z,25.71
2016-09-15T12:52:54.018Z,25.74
2016-09-15T12:53:54.009Z,25.76